sensor_id;sensor_type;location;lat;lon;timestamp;P1;durP1;ratioP1;P2;durP2;ratioP2
5684;SDS011;2865;53.114;9.130;2023-10-09T00:02:22;4.37;;;2.50;;
5684;SDS011;2865;53.114;9.130;2023-10-09T00:04:47;8.50;;;3.30;;
5684;SDS011;2865;53.114;9.130;2023-10-09T00:07:13;4.07;;;1.90;;
5684;SDS011;2865;53.114;9.130;2023-10-09T00:09:38;5.50;;;1.90;;
5684;SDS011;2865;53.114;9.130;2023-10-09T00:12:06;4.07;;;2.43;;
5684;SDS011;2865;53.114;9.130;2023-10-09T00:14:31;4.20;;;2.40;;
5684;SDS011;2865;53.114;9.130;2023-10-09T00:16:57;7.67;;;2.60;;
5684;SDS011;2865;53.114;9.130;2023-10-09T00:19:26;4.40;;;2.13;;
5684;SDS011;2865;53.114;9.130;2023-10-09T00:21:51;6.67;;;2.40;;
5684;SDS011;2865;53.114;9.130;2023-10-09T00:24:17;3.57;;;2.20;;
5684;SDS011;2865;53.114;9.130;2023-10-09T00:26:47;6.57;;;3.00;;
5684;SDS011;2865;53.114;9.130;2023-10-09T00:29:13;4.17;;;2.57;;
5684;SDS011;2865;53.114;9.130;2023-10-09T00:31:41;3.10;;;2.20;;
5684;SDS011;2865;53.114;9.130;2023-10-09T00:34:06;4.47;;;2.40;;
5684;SDS011;2865;53.114;9.130;2023-10-09T00:36:31;6.10;;;2.60;;
5684;SDS011;2865;53.114;9.130;2023-10-09T00:38:56;3.30;;;2.83;;
5684;SDS011;2865;53.114;9.130;2023-10-09T00:41:22;2.70;;;2.27;;
5684;SDS011;2865;53.114;9.130;2023-10-09T00:43:47;5.13;;;2.67;;
5684;SDS011;2865;53.114;9.130;2023-10-09T00:46:13;6.20;;;2.43;;
5684;SDS011;2865;53.114;9.130;2023-10-09T00:48:55;9.97;;;2.90;;
5684;SDS011;2865;53.114;9.130;2023-10-09T00:51:22;6.20;;;3.17;;
5684;SDS011;2865;53.114;9.130;2023-10-09T00:53:49;7.10;;;3.63;;
5684;SDS011;2865;53.114;9.130;2023-10-09T00:56:13;4.40;;;3.17;;
5684;SDS011;2865;53.114;9.130;2023-10-09T00:58:43;4.30;;;2.63;;
5684;SDS011;2865;53.114;9.130;2023-10-09T01:01:09;6.40;;;2.93;;
5684;SDS011;2865;53.114;9.130;2023-10-09T01:03:34;5.13;;;2.47;;
5684;SDS011;2865;53.114;9.130;2023-10-09T01:06:00;3.77;;;2.80;;
5684;SDS011;2865;53.114;9.130;2023-10-09T01:08:26;3.20;;;2.07;;
5684;SDS011;2865;53.114;9.130;2023-10-09T01:10:55;4.90;;;2.73;;
5684;SDS011;2865;53.114;9.130;2023-10-09T01:13:24;3.53;;;2.03;;
5684;SDS011;2865;53.114;9.130;2023-10-09T01:15:48;3.90;;;2.63;;
5684;SDS011;2865;53.114;9.130;2023-10-09T01:18:14;3.50;;;2.60;;
5684;SDS011;2865;53.114;9.130;2023-10-09T01:20:39;8.20;;;2.30;;
5684;SDS011;2865;53.114;9.130;2023-10-09T01:23:08;4.10;;;2.47;;
5684;SDS011;2865;53.114;9.130;2023-10-09T01:25:33;4.43;;;2.73;;
5684;SDS011;2865;53.114;9.130;2023-10-09T01:27:58;5.50;;;3.23;;
5684;SDS011;2865;53.114;9.130;2023-10-09T01:30:24;3.67;;;2.40;;
5684;SDS011;2865;53.114;9.130;2023-10-09T01:32:49;8.07;;;3.10;;
5684;SDS011;2865;53.114;9.130;2023-10-09T01:35:15;9.90;;;2.80;;
5684;SDS011;2865;53.114;9.130;2023-10-09T01:37:40;5.30;;;3.20;;
5684;SDS011;2865;53.114;9.130;2023-10-09T01:40:06;3.57;;;2.60;;
5684;SDS011;2865;53.114;9.130;2023-10-09T01:42:47;3.63;;;2.43;;
5684;SDS011;2865;53.114;9.130;2023-10-09T01:45:13;6.77;;;2.70;;
5684;SDS011;2865;53.114;9.130;2023-10-09T01:47:41;5.10;;;2.60;;
5684;SDS011;2865;53.114;9.130;2023-10-09T01:50:07;5.90;;;3.10;;
5684;SDS011;2865;53.114;9.130;2023-10-09T01:52:37;2.97;;;2.70;;
5684;SDS011;2865;53.114;9.130;2023-10-09T01:55:02;6.53;;;2.70;;
5684;SDS011;2865;53.114;9.130;2023-10-09T01:57:27;3.27;;;2.30;;
5684;SDS011;2865;53.114;9.130;2023-10-09T01:59:53;5.33;;;3.13;;
5684;SDS011;2865;53.114;9.130;2023-10-09T02:02:19;4.90;;;2.57;;
5684;SDS011;2865;53.114;9.130;2023-10-09T02:04:53;3.50;;;2.63;;
5684;SDS011;2865;53.114;9.130;2023-10-09T02:07:18;5.93;;;3.20;;
5684;SDS011;2865;53.114;9.130;2023-10-09T02:09:43;5.20;;;2.60;;
5684;SDS011;2865;53.114;9.130;2023-10-09T02:12:08;4.57;;;2.70;;
5684;SDS011;2865;53.114;9.130;2023-10-09T02:14:34;7.13;;;2.50;;
5684;SDS011;2865;53.114;9.130;2023-10-09T02:16:59;8.53;;;3.10;;
5684;SDS011;2865;53.114;9.130;2023-10-09T02:19:28;8.10;;;3.47;;
5684;SDS011;2865;53.114;9.130;2023-10-09T02:21:54;7.00;;;2.87;;
5684;SDS011;2865;53.114;9.130;2023-10-09T02:24:19;4.13;;;2.53;;
5684;SDS011;2865;53.114;9.130;2023-10-09T02:26:56;3.20;;;2.67;;
5684;SDS011;2865;53.114;9.130;2023-10-09T02:29:29;5.90;;;3.00;;
5684;SDS011;2865;53.114;9.130;2023-10-09T02:31:54;2.70;;;2.47;;
5684;SDS011;2865;53.114;9.130;2023-10-09T02:34:19;5.90;;;2.90;;
5684;SDS011;2865;53.114;9.130;2023-10-09T02:36:45;4.70;;;2.50;;
5684;SDS011;2865;53.114;9.130;2023-10-09T02:39:10;12.03;;;3.13;;
5684;SDS011;2865;53.114;9.130;2023-10-09T02:41:35;7.03;;;3.37;;
5684;SDS011;2865;53.114;9.130;2023-10-09T02:44:01;3.47;;;3.10;;
5684;SDS011;2865;53.114;9.130;2023-10-09T02:46:26;5.37;;;2.73;;
5684;SDS011;2865;53.114;9.130;2023-10-09T02:48:54;2.90;;;2.60;;
5684;SDS011;2865;53.114;9.130;2023-10-09T02:51:19;8.67;;;2.93;;
5684;SDS011;2865;53.114;9.130;2023-10-09T02:53:46;3.13;;;2.40;;
5684;SDS011;2865;53.114;9.130;2023-10-09T02:56:12;4.03;;;2.70;;
5684;SDS011;2865;53.114;9.130;2023-10-09T02:58:38;3.20;;;2.87;;
5684;SDS011;2865;53.114;9.130;2023-10-09T03:01:03;4.23;;;2.60;;
5684;SDS011;2865;53.114;9.130;2023-10-09T03:03:29;6.13;;;2.63;;
5684;SDS011;2865;53.114;9.130;2023-10-09T03:05:54;3.50;;;2.37;;
5684;SDS011;2865;53.114;9.130;2023-10-09T03:08:20;3.80;;;2.60;;
5684;SDS011;2865;53.114;9.130;2023-10-09T03:10:45;10.87;;;3.07;;
5684;SDS011;2865;53.114;9.130;2023-10-09T03:13:10;10.03;;;2.63;;
5684;SDS011;2865;53.114;9.130;2023-10-09T03:15:36;8.87;;;3.00;;
5684;SDS011;2865;53.114;9.130;2023-10-09T03:18:01;3.43;;;2.50;;
5684;SDS011;2865;53.114;9.130;2023-10-09T03:20:27;6.20;;;3.00;;
5684;SDS011;2865;53.114;9.130;2023-10-09T03:22:52;3.73;;;2.40;;
5684;SDS011;2865;53.114;9.130;2023-10-09T03:25:17;10.33;;;3.63;;
5684;SDS011;2865;53.114;9.130;2023-10-09T03:27:43;5.20;;;2.60;;
5684;SDS011;2865;53.114;9.130;2023-10-09T03:30:13;2.50;;;2.30;;
5684;SDS011;2865;53.114;9.130;2023-10-09T03:32:39;5.93;;;3.53;;
5684;SDS011;2865;53.114;9.130;2023-10-09T03:35:05;2.80;;;2.23;;
5684;SDS011;2865;53.114;9.130;2023-10-09T03:37:31;5.70;;;3.40;;
5684;SDS011;2865;53.114;9.130;2023-10-09T03:39:58;9.17;;;3.27;;
5684;SDS011;2865;53.114;9.130;2023-10-09T03:42:24;3.00;;;2.60;;
5684;SDS011;2865;53.114;9.130;2023-10-09T03:44:49;4.93;;;2.70;;
5684;SDS011;2865;53.114;9.130;2023-10-09T03:47:15;3.73;;;2.50;;
5684;SDS011;2865;53.114;9.130;2023-10-09T03:49:40;7.00;;;2.83;;
5684;SDS011;2865;53.114;9.130;2023-10-09T03:52:05;4.47;;;3.03;;
5684;SDS011;2865;53.114;9.130;2023-10-09T03:54:32;4.70;;;2.40;;
5684;SDS011;2865;53.114;9.130;2023-10-09T03:56:57;6.67;;;3.63;;
5684;SDS011;2865;53.114;9.130;2023-10-09T03:59:22;5.07;;;2.73;;
5684;SDS011;2865;53.114;9.130;2023-10-09T04:01:48;3.90;;;2.60;;
5684;SDS011;2865;53.114;9.130;2023-10-09T04:04:13;2.87;;;2.33;;
5684;SDS011;2865;53.114;9.130;2023-10-09T04:06:39;3.50;;;2.90;;
5684;SDS011;2865;53.114;9.130;2023-10-09T04:09:05;4.77;;;2.50;;
5684;SDS011;2865;53.114;9.130;2023-10-09T04:11:36;6.23;;;3.17;;
5684;SDS011;2865;53.114;9.130;2023-10-09T04:14:01;4.60;;;2.90;;
5684;SDS011;2865;53.114;9.130;2023-10-09T04:16:26;5.03;;;2.97;;
5684;SDS011;2865;53.114;9.130;2023-10-09T04:18:52;7.60;;;3.00;;
5684;SDS011;2865;53.114;9.130;2023-10-09T04:21:18;3.30;;;2.83;;
5684;SDS011;2865;53.114;9.130;2023-10-09T04:23:44;3.77;;;3.00;;
5684;SDS011;2865;53.114;9.130;2023-10-09T04:26:15;9.80;;;2.80;;
5684;SDS011;2865;53.114;9.130;2023-10-09T04:28:41;7.67;;;3.00;;
5684;SDS011;2865;53.114;9.130;2023-10-09T04:31:06;6.87;;;3.20;;
5684;SDS011;2865;53.114;9.130;2023-10-09T04:33:31;5.37;;;3.13;;
5684;SDS011;2865;53.114;9.130;2023-10-09T04:36:01;4.70;;;3.40;;
5684;SDS011;2865;53.114;9.130;2023-10-09T04:38:32;6.20;;;3.30;;
5684;SDS011;2865;53.114;9.130;2023-10-09T04:40:58;5.50;;;3.10;;
5684;SDS011;2865;53.114;9.130;2023-10-09T04:43:23;6.37;;;3.00;;
5684;SDS011;2865;53.114;9.130;2023-10-09T04:45:48;3.80;;;3.33;;
5684;SDS011;2865;53.114;9.130;2023-10-09T04:48:20;7.47;;;3.03;;
5684;SDS011;2865;53.114;9.130;2023-10-09T04:50:51;4.40;;;2.90;;
5684;SDS011;2865;53.114;9.130;2023-10-09T04:53:23;4.83;;;2.70;;
5684;SDS011;2865;53.114;9.130;2023-10-09T04:55:48;6.87;;;3.00;;
5684;SDS011;2865;53.114;9.130;2023-10-09T04:58:25;3.53;;;3.23;;
5684;SDS011;2865;53.114;9.130;2023-10-09T05:00:52;3.63;;;3.03;;
5684;SDS011;2865;53.114;9.130;2023-10-09T05:03:33;4.90;;;3.00;;
5684;SDS011;2865;53.114;9.130;2023-10-09T05:06:11;5.47;;;2.90;;
5684;SDS011;2865;53.114;9.130;2023-10-09T05:08:42;7.70;;;3.40;;
5684;SDS011;2865;53.114;9.130;2023-10-09T05:11:08;5.23;;;3.40;;
5684;SDS011;2865;53.114;9.130;2023-10-09T05:13:35;4.20;;;3.30;;
5684;SDS011;2865;53.114;9.130;2023-10-09T05:16:11;4.13;;;3.53;;
5684;SDS011;2865;53.114;9.130;2023-10-09T05:18:43;7.30;;;3.83;;
5684;SDS011;2865;53.114;9.130;2023-10-09T05:21:08;3.40;;;3.10;;
5684;SDS011;2865;53.114;9.130;2023-10-09T05:23:53;5.50;;;3.73;;
5684;SDS011;2865;53.114;9.130;2023-10-09T05:26:35;5.80;;;4.13;;
5684;SDS011;2865;53.114;9.130;2023-10-09T05:29:02;5.50;;;3.73;;
5684;SDS011;2865;53.114;9.130;2023-10-09T05:31:28;4.20;;;3.40;;
5684;SDS011;2865;53.114;9.130;2023-10-09T05:33:59;6.23;;;4.17;;
5684;SDS011;2865;53.114;9.130;2023-10-09T05:36:24;6.30;;;4.03;;
5684;SDS011;2865;53.114;9.130;2023-10-09T05:39:00;5.50;;;3.70;;
5684;SDS011;2865;53.114;9.130;2023-10-09T05:41:41;5.60;;;4.80;;
5684;SDS011;2865;53.114;9.130;2023-10-09T05:44:11;10.00;;;4.40;;
5684;SDS011;2865;53.114;9.130;2023-10-09T05:46:42;4.37;;;3.90;;
5684;SDS011;2865;53.114;9.130;2023-10-09T05:49:08;4.93;;;3.80;;
5684;SDS011;2865;53.114;9.130;2023-10-09T05:51:34;7.63;;;4.73;;
5684;SDS011;2865;53.114;9.130;2023-10-09T05:54:05;7.30;;;4.57;;
5684;SDS011;2865;53.114;9.130;2023-10-09T05:56:37;11.70;;;5.60;;
5684;SDS011;2865;53.114;9.130;2023-10-09T05:59:08;7.80;;;5.57;;
5684;SDS011;2865;53.114;9.130;2023-10-09T06:01:37;11.27;;;8.07;;
5684;SDS011;2865;53.114;9.130;2023-10-09T06:04:08;12.33;;;5.73;;
5684;SDS011;2865;53.114;9.130;2023-10-09T06:06:41;9.80;;;6.73;;
5684;SDS011;2865;53.114;9.130;2023-10-09T06:09:08;8.87;;;6.47;;
5684;SDS011;2865;53.114;9.130;2023-10-09T06:11:36;12.07;;;7.83;;
5684;SDS011;2865;53.114;9.130;2023-10-09T06:14:04;9.77;;;7.50;;
5684;SDS011;2865;53.114;9.130;2023-10-09T06:16:30;14.23;;;8.77;;
5684;SDS011;2865;53.114;9.130;2023-10-09T06:18:55;14.10;;;8.57;;
5684;SDS011;2865;53.114;9.130;2023-10-09T06:21:21;17.67;;;8.73;;
5684;SDS011;2865;53.114;9.130;2023-10-09T06:23:52;12.17;;;7.53;;
5684;SDS011;2865;53.114;9.130;2023-10-09T06:26:33;7.87;;;6.97;;
5684;SDS011;2865;53.114;9.130;2023-10-09T06:28:59;8.87;;;6.53;;
5684;SDS011;2865;53.114;9.130;2023-10-09T06:31:30;9.50;;;7.73;;
5684;SDS011;2865;53.114;9.130;2023-10-09T06:33:55;9.83;;;6.90;;
5684;SDS011;2865;53.114;9.130;2023-10-09T06:36:23;20.83;;;12.13;;
5684;SDS011;2865;53.114;9.130;2023-10-09T06:38:48;13.27;;;9.40;;
5684;SDS011;2865;53.114;9.130;2023-10-09T06:41:17;13.70;;;8.97;;
5684;SDS011;2865;53.114;9.130;2023-10-09T06:43:43;19.07;;;10.13;;
5684;SDS011;2865;53.114;9.130;2023-10-09T06:46:14;17.83;;;10.30;;
5684;SDS011;2865;53.114;9.130;2023-10-09T06:48:40;16.83;;;11.37;;
5684;SDS011;2865;53.114;9.130;2023-10-09T06:51:06;17.27;;;10.57;;
5684;SDS011;2865;53.114;9.130;2023-10-09T06:53:38;14.63;;;8.30;;
5684;SDS011;2865;53.114;9.130;2023-10-09T06:56:10;17.27;;;9.80;;
5684;SDS011;2865;53.114;9.130;2023-10-09T06:58:34;16.47;;;9.57;;
5684;SDS011;2865;53.114;9.130;2023-10-09T07:01:06;16.33;;;9.30;;
5684;SDS011;2865;53.114;9.130;2023-10-09T07:03:45;20.10;;;10.53;;
5684;SDS011;2865;53.114;9.130;2023-10-09T07:06:15;20.60;;;10.40;;
5684;SDS011;2865;53.114;9.130;2023-10-09T07:08:46;26.97;;;11.87;;
5684;SDS011;2865;53.114;9.130;2023-10-09T07:11:12;18.87;;;11.77;;
5684;SDS011;2865;53.114;9.130;2023-10-09T07:13:43;20.77;;;11.87;;
5684;SDS011;2865;53.114;9.130;2023-10-09T07:16:09;20.83;;;12.80;;
5684;SDS011;2865;53.114;9.130;2023-10-09T07:18:40;22.53;;;13.17;;
5684;SDS011;2865;53.114;9.130;2023-10-09T07:21:06;24.63;;;14.03;;
5684;SDS011;2865;53.114;9.130;2023-10-09T07:23:31;29.67;;;15.77;;
5684;SDS011;2865;53.114;9.130;2023-10-09T07:26:02;24.57;;;14.90;;
5684;SDS011;2865;53.114;9.130;2023-10-09T07:28:27;31.73;;;18.03;;
5684;SDS011;2865;53.114;9.130;2023-10-09T07:30:55;36.20;;;17.00;;
5684;SDS011;2865;53.114;9.130;2023-10-09T07:33:20;33.73;;;16.30;;
5684;SDS011;2865;53.114;9.130;2023-10-09T07:35:47;39.20;;;18.13;;
5684;SDS011;2865;53.114;9.130;2023-10-09T07:38:14;34.00;;;18.40;;
5684;SDS011;2865;53.114;9.130;2023-10-09T07:40:41;37.37;;;19.10;;
5684;SDS011;2865;53.114;9.130;2023-10-09T07:43:12;43.17;;;21.27;;
5684;SDS011;2865;53.114;9.130;2023-10-09T07:45:37;42.80;;;21.63;;
5684;SDS011;2865;53.114;9.130;2023-10-09T07:48:18;46.30;;;22.73;;
5684;SDS011;2865;53.114;9.130;2023-10-09T07:50:43;46.93;;;23.50;;
5684;SDS011;2865;53.114;9.130;2023-10-09T07:53:10;44.37;;;24.17;;
5684;SDS011;2865;53.114;9.130;2023-10-09T07:55:40;51.70;;;26.07;;
5684;SDS011;2865;53.114;9.130;2023-10-09T07:58:05;49.87;;;24.37;;
5684;SDS011;2865;53.114;9.130;2023-10-09T08:00:31;51.33;;;25.30;;
5684;SDS011;2865;53.114;9.130;2023-10-09T08:03:01;58.07;;;28.47;;
5684;SDS011;2865;53.114;9.130;2023-10-09T08:05:28;59.87;;;25.40;;
5684;SDS011;2865;53.114;9.130;2023-10-09T08:07:53;53.07;;;26.30;;
5684;SDS011;2865;53.114;9.130;2023-10-09T08:10:20;56.70;;;28.03;;
5684;SDS011;2865;53.114;9.130;2023-10-09T08:13:01;55.53;;;27.20;;
5684;SDS011;2865;53.114;9.130;2023-10-09T08:15:26;71.77;;;26.77;;
5684;SDS011;2865;53.114;9.130;2023-10-09T08:17:52;55.53;;;28.60;;
5684;SDS011;2865;53.114;9.130;2023-10-09T08:20:24;53.40;;;26.10;;
5684;SDS011;2865;53.114;9.130;2023-10-09T08:22:52;56.23;;;28.93;;
5684;SDS011;2865;53.114;9.130;2023-10-09T08:25:17;56.63;;;26.20;;
5684;SDS011;2865;53.114;9.130;2023-10-09T08:27:48;67.87;;;28.33;;
5684;SDS011;2865;53.114;9.130;2023-10-09T08:30:14;59.50;;;28.33;;
5684;SDS011;2865;53.114;9.130;2023-10-09T08:32:57;60.80;;;26.33;;
5684;SDS011;2865;53.114;9.130;2023-10-09T08:35:28;60.77;;;26.57;;
5684;SDS011;2865;53.114;9.130;2023-10-09T08:37:56;61.93;;;27.07;;
5684;SDS011;2865;53.114;9.130;2023-10-09T08:40:20;61.60;;;27.07;;
5684;SDS011;2865;53.114;9.130;2023-10-09T08:42:49;67.43;;;28.13;;
5684;SDS011;2865;53.114;9.130;2023-10-09T08:45:12;65.70;;;28.90;;
5684;SDS011;2865;53.114;9.130;2023-10-09T08:47:38;56.73;;;26.87;;
5684;SDS011;2865;53.114;9.130;2023-10-09T08:50:03;57.60;;;26.10;;
5684;SDS011;2865;53.114;9.130;2023-10-09T08:52:29;60.60;;;27.63;;
5684;SDS011;2865;53.114;9.130;2023-10-09T08:54:54;62.37;;;28.27;;
5684;SDS011;2865;53.114;9.130;2023-10-09T08:57:20;53.40;;;24.80;;
5684;SDS011;2865;53.114;9.130;2023-10-09T08:59:45;69.70;;;27.83;;
5684;SDS011;2865;53.114;9.130;2023-10-09T09:02:11;52.97;;;26.73;;
5684;SDS011;2865;53.114;9.130;2023-10-09T09:04:38;56.00;;;25.10;;
5684;SDS011;2865;53.114;9.130;2023-10-09T09:07:03;62.27;;;25.67;;
5684;SDS011;2865;53.114;9.130;2023-10-09T09:09:28;50.73;;;26.00;;
5684;SDS011;2865;53.114;9.130;2023-10-09T09:11:54;45.60;;;24.23;;
5684;SDS011;2865;53.114;9.130;2023-10-09T09:14:19;53.43;;;23.60;;
5684;SDS011;2865;53.114;9.130;2023-10-09T09:16:45;46.60;;;23.37;;
5684;SDS011;2865;53.114;9.130;2023-10-09T09:19:10;52.30;;;24.27;;
5684;SDS011;2865;53.114;9.130;2023-10-09T09:21:37;47.83;;;23.50;;
5684;SDS011;2865;53.114;9.130;2023-10-09T09:24:04;48.80;;;23.30;;
5684;SDS011;2865;53.114;9.130;2023-10-09T09:26:33;41.47;;;23.50;;
5684;SDS011;2865;53.114;9.130;2023-10-09T09:28:58;48.30;;;22.63;;
5684;SDS011;2865;53.114;9.130;2023-10-09T09:31:24;51.33;;;23.40;;
5684;SDS011;2865;53.114;9.130;2023-10-09T09:33:55;41.07;;;23.13;;
5684;SDS011;2865;53.114;9.130;2023-10-09T09:36:14;47.67;;;21.57;;
5684;SDS011;2865;53.114;9.130;2023-10-09T09:38:40;43.00;;;22.40;;
5684;SDS011;2865;53.114;9.130;2023-10-09T09:41:08;42.97;;;21.30;;
5684;SDS011;2865;53.114;9.130;2023-10-09T09:43:34;49.70;;;22.83;;
5684;SDS011;2865;53.114;9.130;2023-10-09T09:45:59;54.27;;;23.73;;
5684;SDS011;2865;53.114;9.130;2023-10-09T09:48:24;51.73;;;22.60;;
5684;SDS011;2865;53.114;9.130;2023-10-09T09:50:52;49.03;;;21.90;;
5684;SDS011;2865;53.114;9.130;2023-10-09T09:53:15;52.77;;;22.77;;
5684;SDS011;2865;53.114;9.130;2023-10-09T09:55:52;45.23;;;22.23;;
5684;SDS011;2865;53.114;9.130;2023-10-09T09:58:18;50.27;;;21.70;;
5684;SDS011;2865;53.114;9.130;2023-10-09T10:00:44;50.10;;;21.80;;
5684;SDS011;2865;53.114;9.130;2023-10-09T10:03:13;41.57;;;20.37;;
5684;SDS011;2865;53.114;9.130;2023-10-09T10:05:38;43.63;;;20.53;;
5684;SDS011;2865;53.114;9.130;2023-10-09T10:08:03;40.70;;;19.87;;
5684;SDS011;2865;53.114;9.130;2023-10-09T10:10:33;43.30;;;22.33;;
5684;SDS011;2865;53.114;9.130;2023-10-09T10:12:58;36.57;;;18.53;;
5684;SDS011;2865;53.114;9.130;2023-10-09T10:15:50;34.80;;;18.20;;
5684;SDS011;2865;53.114;9.130;2023-10-09T10:23:16;41.87;;;20.10;;
5684;SDS011;2865;53.114;9.130;2023-10-09T10:25:43;36.37;;;19.03;;
5684;SDS011;2865;53.114;9.130;2023-10-09T10:30:49;46.27;;;20.60;;
5684;SDS011;2865;53.114;9.130;2023-10-09T10:33:15;40.90;;;18.37;;
5684;SDS011;2865;53.114;9.130;2023-10-09T10:35:40;47.63;;;19.43;;
5684;SDS011;2865;53.114;9.130;2023-10-09T10:38:23;32.73;;;17.43;;
5684;SDS011;2865;53.114;9.130;2023-10-09T10:40:53;29.43;;;16.60;;
5684;SDS011;2865;53.114;9.130;2023-10-09T10:43:22;31.73;;;17.50;;
5684;SDS011;2865;53.114;9.130;2023-10-09T10:46:00;28.63;;;15.90;;
5684;SDS011;2865;53.114;9.130;2023-10-09T10:48:19;30.70;;;16.47;;
5684;SDS011;2865;53.114;9.130;2023-10-09T10:50:49;37.60;;;16.23;;
5684;SDS011;2865;53.114;9.130;2023-10-09T10:53:14;37.50;;;18.10;;
5684;SDS011;2865;53.114;9.130;2023-10-09T10:55:53;31.77;;;17.40;;
5684;SDS011;2865;53.114;9.130;2023-10-09T11:00:40;28.00;;;16.30;;
5684;SDS011;2865;53.114;9.130;2023-10-09T11:03:17;30.23;;;16.10;;
5684;SDS011;2865;53.114;9.130;2023-10-09T11:05:42;30.87;;;16.43;;
5684;SDS011;2865;53.114;9.130;2023-10-09T11:08:09;33.80;;;16.47;;
5684;SDS011;2865;53.114;9.130;2023-10-09T11:10:34;27.50;;;15.07;;
5684;SDS011;2865;53.114;9.130;2023-10-09T11:12:59;24.97;;;15.90;;
5684;SDS011;2865;53.114;9.130;2023-10-09T11:15:33;28.40;;;14.57;;
5684;SDS011;2865;53.114;9.130;2023-10-09T11:18:05;24.70;;;15.30;;
5684;SDS011;2865;53.114;9.130;2023-10-09T11:20:34;27.17;;;15.00;;
5684;SDS011;2865;53.114;9.130;2023-10-09T11:22:59;23.93;;;14.40;;
5684;SDS011;2865;53.114;9.130;2023-10-09T11:25:32;23.87;;;13.60;;
5684;SDS011;2865;53.114;9.130;2023-10-09T11:27:56;21.80;;;12.97;;
5684;SDS011;2865;53.114;9.130;2023-10-09T11:30:30;22.30;;;13.63;;
5684;SDS011;2865;53.114;9.130;2023-10-09T11:32:47;24.33;;;13.53;;
5684;SDS011;2865;53.114;9.130;2023-10-09T11:35:13;26.90;;;14.40;;
5684;SDS011;2865;53.114;9.130;2023-10-09T11:37:39;19.50;;;12.87;;
5684;SDS011;2865;53.114;9.130;2023-10-09T11:40:05;20.03;;;12.40;;
5684;SDS011;2865;53.114;9.130;2023-10-09T11:42:34;21.60;;;13.57;;
5684;SDS011;2865;53.114;9.130;2023-10-09T11:45:02;17.90;;;11.80;;
5684;SDS011;2865;53.114;9.130;2023-10-09T11:47:33;20.53;;;11.60;;
5684;SDS011;2865;53.114;9.130;2023-10-09T11:49:55;16.63;;;10.80;;
5684;SDS011;2865;53.114;9.130;2023-10-09T11:52:21;20.40;;;10.53;;
5684;SDS011;2865;53.114;9.130;2023-10-09T11:54:53;19.83;;;10.70;;
5684;SDS011;2865;53.114;9.130;2023-10-09T11:57:18;17.60;;;11.23;;
5684;SDS011;2865;53.114;9.130;2023-10-09T11:59:44;18.13;;;10.93;;
5684;SDS011;2865;53.114;9.130;2023-10-09T12:02:09;12.57;;;9.83;;
5684;SDS011;2865;53.114;9.130;2023-10-09T12:04:37;13.57;;;10.20;;
5684;SDS011;2865;53.114;9.130;2023-10-09T12:07:02;13.33;;;10.70;;
5684;SDS011;2865;53.114;9.130;2023-10-09T12:09:32;13.30;;;10.50;;
5684;SDS011;2865;53.114;9.130;2023-10-09T12:11:57;15.77;;;9.13;;
5684;SDS011;2865;53.114;9.130;2023-10-09T12:14:23;14.10;;;8.17;;
5684;SDS011;2865;53.114;9.130;2023-10-09T12:16:48;13.00;;;8.53;;
5684;SDS011;2865;53.114;9.130;2023-10-09T12:19:13;12.30;;;7.30;;
5684;SDS011;2865;53.114;9.130;2023-10-09T12:21:39;12.00;;;8.10;;
5684;SDS011;2865;53.114;9.130;2023-10-09T12:24:04;10.03;;;7.30;;
5684;SDS011;2865;53.114;9.130;2023-10-09T12:26:30;12.80;;;6.60;;
5684;SDS011;2865;53.114;9.130;2023-10-09T12:28:56;9.90;;;5.87;;
5684;SDS011;2865;53.114;9.130;2023-10-09T12:31:21;6.93;;;5.33;;
5684;SDS011;2865;53.114;9.130;2023-10-09T12:33:47;6.97;;;4.63;;
5684;SDS011;2865;53.114;9.130;2023-10-09T12:36:12;7.63;;;4.50;;
5684;SDS011;2865;53.114;9.130;2023-10-09T12:38:40;7.03;;;4.30;;
5684;SDS011;2865;53.114;9.130;2023-10-09T12:41:05;6.03;;;4.53;;
5684;SDS011;2865;53.114;9.130;2023-10-09T12:43:34;6.10;;;4.87;;
5684;SDS011;2865;53.114;9.130;2023-10-09T12:45:59;5.03;;;4.10;;
5684;SDS011;2865;53.114;9.130;2023-10-09T12:48:24;9.60;;;4.73;;
5684;SDS011;2865;53.114;9.130;2023-10-09T12:50:50;4.27;;;3.87;;
5684;SDS011;2865;53.114;9.130;2023-10-09T12:53:15;8.30;;;3.70;;
5684;SDS011;2865;53.114;9.130;2023-10-09T12:55:40;4.77;;;3.17;;
5684;SDS011;2865;53.114;9.130;2023-10-09T12:58:07;5.90;;;3.13;;
5684;SDS011;2865;53.114;9.130;2023-10-09T13:00:33;9.60;;;3.73;;
5684;SDS011;2865;53.114;9.130;2023-10-09T13:02:58;4.23;;;3.30;;
5684;SDS011;2865;53.114;9.130;2023-10-09T13:05:24;6.83;;;3.10;;
5684;SDS011;2865;53.114;9.130;2023-10-09T13:07:50;6.83;;;2.80;;
5684;SDS011;2865;53.114;9.130;2023-10-09T13:10:15;5.93;;;3.77;;
5684;SDS011;2865;53.114;9.130;2023-10-09T13:12:41;7.20;;;3.57;;
5684;SDS011;2865;53.114;9.130;2023-10-09T13:15:08;7.60;;;3.57;;
5684;SDS011;2865;53.114;9.130;2023-10-09T13:17:36;4.73;;;3.57;;
5684;SDS011;2865;53.114;9.130;2023-10-09T13:20:02;8.10;;;4.10;;
5684;SDS011;2865;53.114;9.130;2023-10-09T13:22:27;14.47;;;4.30;;
5684;SDS011;2865;53.114;9.130;2023-10-09T13:24:53;11.30;;;3.20;;
5684;SDS011;2865;53.114;9.130;2023-10-09T13:27:18;13.10;;;3.70;;
5684;SDS011;2865;53.114;9.130;2023-10-09T13:29:43;7.30;;;3.23;;
5684;SDS011;2865;53.114;9.130;2023-10-09T13:32:09;7.00;;;4.07;;
5684;SDS011;2865;53.114;9.130;2023-10-09T13:34:39;6.97;;;3.73;;
5684;SDS011;2865;53.114;9.130;2023-10-09T13:37:04;6.90;;;3.53;;
5684;SDS011;2865;53.114;9.130;2023-10-09T13:39:29;7.07;;;3.03;;
5684;SDS011;2865;53.114;9.130;2023-10-09T13:41:56;6.10;;;3.30;;
5684;SDS011;2865;53.114;9.130;2023-10-09T13:44:27;5.60;;;3.23;;
5684;SDS011;2865;53.114;9.130;2023-10-09T13:46:53;3.93;;;2.57;;
5684;SDS011;2865;53.114;9.130;2023-10-09T13:49:19;5.30;;;3.20;;
5684;SDS011;2865;53.114;9.130;2023-10-09T13:51:45;9.00;;;3.33;;
5684;SDS011;2865;53.114;9.130;2023-10-09T13:54:10;11.30;;;3.93;;
5684;SDS011;2865;53.114;9.130;2023-10-09T13:56:35;13.33;;;3.13;;
5684;SDS011;2865;53.114;9.130;2023-10-09T13:59:01;6.40;;;3.00;;
5684;SDS011;2865;53.114;9.130;2023-10-09T14:01:26;5.10;;;2.70;;
5684;SDS011;2865;53.114;9.130;2023-10-09T14:03:53;5.03;;;3.10;;
5684;SDS011;2865;53.114;9.130;2023-10-09T14:06:18;7.83;;;3.23;;
5684;SDS011;2865;53.114;9.130;2023-10-09T14:08:44;4.00;;;2.67;;
5684;SDS011;2865;53.114;9.130;2023-10-09T14:11:09;10.13;;;3.47;;
5684;SDS011;2865;53.114;9.130;2023-10-09T14:13:36;6.53;;;3.33;;
5684;SDS011;2865;53.114;9.130;2023-10-09T14:16:02;11.17;;;3.33;;
5684;SDS011;2865;53.114;9.130;2023-10-09T14:18:27;5.40;;;2.80;;
5684;SDS011;2865;53.114;9.130;2023-10-09T14:20:53;5.83;;;2.47;;
5684;SDS011;2865;53.114;9.130;2023-10-09T14:23:18;6.57;;;3.27;;
5684;SDS011;2865;53.114;9.130;2023-10-09T14:25:44;5.77;;;3.00;;
5684;SDS011;2865;53.114;9.130;2023-10-09T14:28:09;5.83;;;3.23;;
5684;SDS011;2865;53.114;9.130;2023-10-09T14:30:36;4.33;;;2.70;;
5684;SDS011;2865;53.114;9.130;2023-10-09T14:33:01;3.80;;;2.40;;
5684;SDS011;2865;53.114;9.130;2023-10-09T14:35:26;3.50;;;2.00;;
5684;SDS011;2865;53.114;9.130;2023-10-09T14:37:52;4.67;;;2.80;;
5684;SDS011;2865;53.114;9.130;2023-10-09T14:40:17;3.57;;;1.90;;
5684;SDS011;2865;53.114;9.130;2023-10-09T14:42:43;6.87;;;2.53;;
5684;SDS011;2865;53.114;9.130;2023-10-09T14:45:10;2.20;;;1.80;;
5684;SDS011;2865;53.114;9.130;2023-10-09T14:47:35;5.90;;;3.10;;
5684;SDS011;2865;53.114;9.130;2023-10-09T14:50:01;4.77;;;2.43;;
5684;SDS011;2865;53.114;9.130;2023-10-09T14:52:26;3.67;;;1.80;;
5684;SDS011;2865;53.114;9.130;2023-10-09T14:54:52;4.30;;;1.93;;
5684;SDS011;2865;53.114;9.130;2023-10-09T14:57:17;5.60;;;2.17;;
5684;SDS011;2865;53.114;9.130;2023-10-09T14:59:43;7.83;;;1.80;;
5684;SDS011;2865;53.114;9.130;2023-10-09T15:02:08;2.17;;;1.83;;
5684;SDS011;2865;53.114;9.130;2023-10-09T15:04:34;5.10;;;1.70;;
5684;SDS011;2865;53.114;9.130;2023-10-09T15:07:00;2.20;;;1.63;;
5684;SDS011;2865;53.114;9.130;2023-10-09T15:09:25;5.37;;;2.83;;
5684;SDS011;2865;53.114;9.130;2023-10-09T15:11:51;4.70;;;1.73;;
5684;SDS011;2865;53.114;9.130;2023-10-09T15:14:16;2.70;;;1.57;;
5684;SDS011;2865;53.114;9.130;2023-10-09T15:16:42;10.73;;;2.57;;